Ashland, OR

1:30 PM PST on December 20, 2014 (GMT -0800)
Rogue Valley International-Medford | Change Station
CLOSE
Current Station
Airport
Location: Medford,
Elevation: 1329 ft
Nearby Weather Stations

Elev 1329 ft 42.38 °N, 122.87 °W | Updated 37 minutes ago

Rain
Rain
47 °F
Feels Like 47 °F
N
5
Wind Variable Wind from North

Today
High -- | Low -- °F
--% Chance of Precip.
Yesterday
High -- | Low -- °F
Precip. -- in
7:35 AM 4:41 PM
Waning Crescent, 2% visible
Pressure 29.95 in
Visibility 10.0 miles
Clouds Few 400 ft
Overcast 4700 ft
Dew Point 45 °F
Humidity 93%
Rainfall 0.03 in
Snow Depth Not available.
UV 1 out of 12
Pollen .60 out of 12
Air Quality Not available.
Flu Activity Not available.
METAR KMFR 202053Z 36004KT 10SM -RA FEW004 OVC047 08/07 A2994 RMK AO2 RAB51 SLP141 P0000 60000 T00830072 53002

More Conditions Fewer Conditions

Pressure 29.95 in
Visibility 10.0 miles
Clouds Few 400 ft
Overcast 4700 ft
Dew Point 45 °F
Humidity 93%
Rainfall 0.03 in
Snow Depth Not available.
UV 1 out of 12
Pollen .60 out of 12
Air Quality Not available.
Flu Activity Not available.
METAR KMFR 202053Z 36004KT 10SM -RA FEW004 OVC047 08/07 A2994 RMK AO2 RAB51 SLP141 P0000 60000 T00830072 53002

More Conditions Fewer Conditions

10-Day Weather Forecast

Almanac

Astronomy

Dec. 20, 2014 Rise Set
Actual Time
Civil Twilight
Nautical Twilight
Astronomical Twilight
Moon
Length of Visible Light
Length of Day
Tomorrow will be .
, % of the Moon is Illuminated

Today's Extremes

State Highs State Lows

Community

WunderPhotos

Upload Photos

1,779,285 photos uploaded!

WunderBlogs® & News

Nearby

Air Quality

  Air Quality AQ Index Pollutant
Not available.

Snow Depth

Station Depth Elevation

Earthquake Activity

City Distance Mag. Time & Date
Minimum magnitude displayed is 2.5.

Coastal Water Temperatures

Place Temperature

Nearby Weather Stations